Time;durP1;ratioP1;P1;durP2;ratioP2;P2;SDS_P1;SDS_P2;PMS_P1;PMS_P2;Temp;Humidity;BMP_temperature;BMP_pressure;BME280_temperature;BME280_humidity;BME280_pressure;Samples;Min_cycle;Max_cycle;Signal;HPM_P1;HPM_P2
2023/06/02 00:00:00;;;;;;;36.97;2.77;;;;;;;24.89;49.73;99430.47;7315542;19;130088;-40
2023/06/02 00:02:29;;;;;;;72.70;4.70;;;;;;;24.88;50.25;99439.31;7312020;19;130089;-41
2023/06/02 00:04:57;;;;;;;32.92;2.58;;;;;;;24.87;50.41;99435.06;7314678;19;130295;-40
2023/06/02 00:07:25;;;;;;;40.25;3.00;;;;;;;24.86;50.16;99428.16;7315446;19;128984;-42
2023/06/02 00:09:50;;;;;;;43.63;3.25;;;;;;;24.86;50.57;99434.22;7314284;19;129463;-40
2023/06/02 00:12:16;;;;;;;42.50;3.33;;;;;;;24.87;50.14;99440.31;7313790;19;129859;-39
2023/06/02 00:14:44;;;;;;;66.67;4.50;;;;;;;24.87;50.19;99445.56;7307178;19;132186;-40
2023/06/02 00:17:10;;;;;;;30.95;2.53;;;;;;;24.86;49.74;99450.00;7314424;19;128807;-41
2023/06/02 00:19:42;;;;;;;28.95;2.38;;;;;;;24.87;50.14;99451.66;7313347;19;129151;-40
2023/06/02 00:22:13;;;;;;;40.50;2.85;;;;;;;24.80;49.87;99439.31;7313079;19;129977;-40
2023/06/02 00:24:40;;;;;;;40.30;2.90;;;;;;;24.88;50.52;99452.47;7313660;19;129640;-41
2023/06/02 00:27:07;;;;;;;53.03;3.88;;;;;;;24.86;50.46;99443.94;7315402;19;129827;-41
2023/06/02 00:29:32;;;;;;;30.27;2.38;;;;;;;24.87;50.50;99448.19;7314431;19;130157;-42
2023/06/02 00:31:57;;;;;;;27.50;2.27;;;;;;;24.88;50.48;99452.47;7311975;19;129056;-41
2023/06/02 00:34:23;;;;;;;32.53;2.67;;;;;;;24.88;50.18;99441.94;7314499;19;129107;-39
2023/06/02 00:36:48;;;;;;;31.80;2.57;;;;;;;24.86;49.82;99438.69;7315151;19;128875;-39
2023/06/02 00:39:13;;;;;;;28.50;2.30;;;;;;;24.87;50.44;99445.56;7313123;19;129919;-40
2023/06/02 00:41:39;;;;;;;31.38;2.75;;;;;;;24.88;49.81;99444.56;7311877;19;130906;-40
2023/06/02 00:44:05;;;;;;;40.27;2.90;;;;;;;24.86;50.32;99449.19;7312463;19;129161;-40
2023/06/02 00:46:30;;;;;;;35.10;2.50;;;;;;;24.88;49.95;99447.19;7313903;19;128877;-40
2023/06/02 00:48:56;;;;;;;27.73;2.40;;;;;;;24.90;49.61;99450.50;7314254;19;129415;-42
2023/06/02 00:51:22;;;;;;;52.30;3.30;;;;;;;24.80;50.48;99429.63;7312500;19;129322;-40
2023/06/02 00:53:47;;;;;;;27.65;2.20;;;;;;;24.86;50.41;99442.13;7312569;19;129014;-40
2023/06/02 00:56:14;;;;;;;60.53;4.37;;;;;;;24.88;50.17;99447.19;7313487;19;129057;-39
2023/06/02 00:58:43;;;;;;;32.70;2.58;;;;;;;24.86;50.92;99450.00;7313275;19;130621;-40
2023/06/02 01:01:10;;;;;;;50.25;3.35;;;;;;;24.87;50.32;99445.56;7312942;19;129852;-38
2023/06/02 01:03:37;;;;;;;46.00;3.33;;;;;;;24.75;50.23;99433.72;7312694;19;129224;-42
2023/06/02 01:06:04;;;;;;;22.00;1.90;;;;;;;24.77;51.12;99443.13;7314749;19;129328;-40
2023/06/02 01:08:31;;;;;;;32.25;2.47;;;;;;;24.84;50.43;99457.22;7312455;19;128977;-40
2023/06/02 01:10:58;;;;;;;39.63;2.95;;;;;;;24.85;50.38;99460.69;7313009;19;129504;-41
2023/06/02 01:13:23;;;;;;;41.33;3.03;;;;;;;24.88;50.12;99457.72;7310056;19;129058;-40
2023/06/02 01:15:49;;;;;;;29.37;2.33;;;;;;;24.86;50.35;99454.47;7314304;19;129321;-41
2023/06/02 01:18:16;;;;;;;103.60;6.53;;;;;;;24.89;50.58;99459.38;7311617;19;128986;-38
2023/06/02 01:20:48;;;;;;;31.40;2.50;;;;;;;24.85;50.45;99460.69;7306464;19;129906;-41
2023/06/02 01:23:21;;;;;;;53.90;3.53;;;;;;;24.87;50.76;99461.34;7311416;19;129243;-41
2023/06/02 01:25:47;;;;;;;37.40;2.78;;;;;;;24.86;50.00;99455.25;7312994;19;129300;-40
2023/06/02 01:28:14;;;;;;;50.40;3.77;;;;;;;24.85;50.42;99458.06;7311882;19;129288;-41
2023/06/02 01:30:39;;;;;;;23.05;2.10;;;;;;;24.86;50.84;99464.97;7311605;19;129932;-40
2023/06/02 01:33:19;;;;;;;73.67;4.77;;;;;;;24.86;50.44;99459.72;7308938;19;129387;-39
2023/06/02 01:35:48;;;;;;;49.60;3.50;;;;;;;24.85;50.39;99468.56;7313210;19;130534;-40
2023/06/02 01:38:17;;;;;;;29.30;2.22;;;;;;;24.84;50.16;99459.06;7313051;19;129295;-42
2023/06/02 01:40:43;;;;;;;26.35;2.30;;;;;;;24.84;50.21;99466.94;7311474;19;129101;-40
2023/06/02 01:43:11;;;;;;;29.95;2.20;;;;;;;24.84;50.62;99457.22;7308981;19;129693;-41
2023/06/02 01:45:38;;;;;;;41.58;2.80;;;;;;;24.83;50.79;99454.75;7312400;19;129247;-40
2023/06/02 01:48:04;;;;;;;41.00;3.05;;;;;;;24.86;50.24;99465.78;7312069;19;130492;-39
2023/06/02 01:50:31;;;;;;;56.22;4.20;;;;;;;24.77;50.75;99439.66;7306460;19;129178;-39
2023/06/02 01:52:56;;;;;;;30.17;2.40;;;;;;;24.81;49.93;99454.13;7312570;19;129012;-40
2023/06/02 01:55:22;;;;;;;71.57;4.17;;;;;;;24.85;51.08;99458.06;7311373;19;129239;-40
2023/06/02 01:57:47;;;;;;;27.00;2.17;;;;;;;24.85;49.28;99463.31;7312731;19;129705;-41
2023/06/02 02:00:13;;;;;;;32.15;2.40;;;;;;;24.84;50.87;99459.06;7311307;19;129600;-37
2023/06/02 02:02:38;;;;;;;61.87;4.30;;;;;;;24.86;50.94;99459.72;7309284;19;129253;-40
2023/06/02 02:05:04;;;;;;;44.97;3.00;;;;;;;24.84;50.42;99461.69;7311804;19;129067;-39
2023/06/02 02:07:30;;;;;;;16.97;1.80;;;;;;;24.86;50.64;99462.34;7312668;19;129025;-41
2023/06/02 02:09:56;;;;;;;37.13;2.80;;;;;;;24.79;50.42;99445.56;7311147;19;130354;-41
2023/06/02 02:12:22;;;;;;;39.67;2.65;;;;;;;24.90;49.74;99471.53;7311251;19;129185;-40
2023/06/02 02:14:50;;;;;;;38.10;2.60;;;;;;;24.90;50.13;99463.66;7311591;19;129107;-40
2023/06/02 02:17:16;;;;;;;35.05;2.70;;;;;;;24.85;50.42;99464.16;7312299;19;130681;-41
2023/06/02 02:19:42;;;;;;;;;;;;;;;24.95;51.20;99463.97;7311046;19;129542;-41
2023/06/02 02:22:07;;;;;;;40.78;3.10;;;;;;;24.90;50.39;99471.53;7310303;19;129084;-41
2023/06/02 02:24:33;;;;;;;16.57;1.77;;;;;;;24.86;50.48;99471.03;7312394;19;129085;-39
2023/06/02 02:26:58;;;;;;;27.90;2.23;;;;;;;24.86;51.14;99470.25;7310696;19;129083;-42
2023/06/02 02:29:23;;;;;;;25.57;2.00;;;;;;;24.85;50.85;99474.66;7311951;19;129731;-41
2023/06/02 02:31:48;;;;;;;55.97;3.73;;;;;;;24.87;49.96;99471.88;7309818;19;129262;-39
2023/06/02 02:34:14;;;;;;;30.53;2.40;;;;;;;24.87;50.61;99474.50;7311942;19;129154;-39
2023/06/02 02:36:39;;;;;;;35.15;2.40;;;;;;;24.84;51.27;99467.75;7311919;19;129991;-40
2023/06/02 02:39:05;;;;;;;35.57;2.63;;;;;;;24.85;51.18;99473.84;7310330;19;129628;-40
2023/06/02 02:41:31;;;;;;;19.95;1.80;;;;;;;24.84;50.11;99469.56;7310811;19;128619;-40
2023/06/02 02:43:56;;;;;;;34.50;2.45;;;;;;;24.84;50.64;99466.94;7314232;19;129207;-41
2023/06/02 02:46:21;;;;;;;34.35;2.55;;;;;;;24.74;50.64;99461.03;7318232;19;129685;-39
2023/06/02 02:48:47;;;;;;;11.57;1.40;;;;;;;24.84;51.14;99488.78;7316919;19;130112;-41
2023/06/02 02:51:13;;;;;;;56.50;3.40;;;;;;;24.84;50.28;99483.53;7315789;19;129342;-40
2023/06/02 02:53:38;;;;;;;29.58;2.20;;;;;;;24.83;50.60;99486.31;7316984;19;129401;-41
2023/06/02 02:56:04;;;;;;;33.87;2.40;;;;;;;24.81;50.92;99481.22;7316276;19;129124;-39
2023/06/02 02:58:31;;;;;;;30.83;2.27;;;;;;;24.83;51.01;99489.78;7316953;19;129538;-39
2023/06/02 03:00:57;;;;;;;37.00;2.88;;;;;;;24.83;51.11;99491.56;7314874;19;129479;-41
2023/06/02 03:03:22;;;;;;;42.13;2.90;;;;;;;24.82;51.02;99489.94;7315270;19;128780;-40
2023/06/02 03:05:48;;;;;;;30.93;2.37;;;;;;;24.82;50.77;99495.22;7314816;19;129361;-42
2023/06/02 03:08:15;;;;;;;32.93;2.23;;;;;;;24.80;50.59;99490.13;7317434;19;129328;-41
2023/06/02 03:10:41;;;;;;;37.70;2.65;;;;;;;24.81;50.92;99498.84;7315337;19;129614;-40
2023/06/02 03:13:06;;;;;;;26.93;2.07;;;;;;;24.82;50.80;99492.56;7316137;19;128953;-39
2023/06/02 03:15:33;;;;;;;43.07;3.07;;;;;;;24.83;50.67;99500.31;7314260;19;129541;-40
2023/06/02 03:17:59;;;;;;;;;;;;;;;24.91;50.87;99504.72;7317243;19;129217;-40
2023/06/02 03:20:25;;;;;;;64.65;4.38;;;;;;;24.84;51.38;99501.13;7315943;19;129332;-41
2023/06/02 03:22:51;;;;;;;26.13;1.98;;;;;;;24.84;50.78;99499.31;7316050;19;129228;-41
2023/06/02 03:25:20;;;;;;;57.83;3.97;;;;;;;24.82;50.61;99501.28;7314394;19;129128;-41
2023/06/02 03:27:46;;;;;;;36.15;2.70;;;;;;;24.81;50.90;99498.84;7316022;19;130000;-42
2023/06/02 03:30:12;;;;;;;49.13;3.37;;;;;;;24.82;50.30;99500.47;7317708;19;129362;-40
2023/06/02 03:32:37;;;;;;;32.27;2.30;;;;;;;24.83;50.89;99504.72;7315228;19;130037;-40
2023/06/02 03:35:03;;;;;;;55.80;3.70;;;;;;;24.82;50.29;99505.72;7317075;19;130833;-40
2023/06/02 03:37:28;;;;;;;42.30;2.75;;;;;;;24.82;51.21;99513.63;7315960;19;129783;-41
2023/06/02 03:39:54;;;;;;;39.10;2.73;;;;;;;24.81;50.48;99514.63;7317563;19;128858;-40
2023/06/02 03:42:19;;;;;;;29.07;2.13;;;;;;;24.80;50.91;99515.56;7316768;19;129552;-41
2023/06/02 03:44:45;;;;;;;29.20;2.37;;;;;;;24.70;51.09;99501.75;7316824;19;129445;-41
2023/06/02 03:47:10;;;;;;;43.87;2.93;;;;;;;24.81;50.63;99525.13;7315664;19;130296;-41
2023/06/02 03:49:36;;;;;;;30.37;2.33;;;;;;;24.74;51.26;99519.69;7316903;19;128937;-39
2023/06/02 03:52:02;;;;;;;5.43;0.90;;;;;;;24.80;50.93;99526.09;7315032;19;129525;-41
2023/06/02 03:54:27;;;;;;;29.37;2.40;;;;;;;24.79;50.96;99527.88;7314737;19;130616;-42
2023/06/02 03:56:53;;;;;;;47.70;2.83;;;;;;;24.79;50.35;99529.72;7315302;19;130457;-40
2023/06/02 03:59:18;;;;;;;27.43;2.30;;;;;;;24.81;50.77;99535.66;7317134;19;128861;-39
2023/06/02 04:01:44;;;;;;;34.10;2.47;;;;;;;24.79;50.70;99532.34;7313385;19;129598;-42
2023/06/02 04:04:11;;;;;;;31.37;2.27;;;;;;;24.80;51.43;99544.50;7314739;19;129360;-42
2023/06/02 04:06:40;;;;;;;54.22;3.38;;;;;;;24.79;51.06;99538.41;7314943;19;131040;-41
2023/06/02 04:09:07;;;;;;;29.20;2.13;;;;;;;24.80;51.29;99549.75;7315776;19;129567;-41
2023/06/02 04:11:32;;;;;;;32.33;2.38;;;;;;;24.79;50.78;99553.38;7315566;19;129087;-40
2023/06/02 04:13:58;;;;;;;65.97;4.37;;;;;;;24.70;51.38;99539.41;7305460;19;130541;-41
2023/06/02 04:16:23;;;;;;;54.37;3.20;;;;;;;24.80;50.49;99558.47;7310468;19;130670;-41
2023/06/02 04:18:48;;;;;;;53.77;3.80;;;;;;;24.80;50.95;99555.03;7308216;19;129223;-40
2023/06/02 04:21:14;;;;;;;70.73;4.47;;;;;;;24.80;51.10;99560.28;7306501;19;130951;-41
2023/06/02 04:23:39;;;;;;;21.77;1.77;;;;;;;24.81;50.94;99559.31;7308886;19;130491;-39
2023/06/02 04:26:04;;;;;;;72.30;4.53;;;;;;;24.81;50.34;99564.56;7308954;19;129693;-39
2023/06/02 04:28:30;;;;;;;89.17;5.43;;;;;;;24.81;51.09;99567.19;7307319;19;130158;-39
2023/06/02 04:30:56;;;;;;;51.07;3.50;;;;;;;24.81;50.50;99567.19;7306246;19;130765;-40
2023/06/02 04:33:23;;;;;;;78.72;4.90;;;;;;;24.81;51.00;99568.00;7303366;19;130444;-39
2023/06/02 04:35:48;;;;;;;59.88;3.80;;;;;;;24.81;50.49;99567.19;7313095;19;129614;-39
2023/06/02 04:38:14;;;;;;;33.77;2.60;;;;;;;24.79;50.34;99567.34;7313626;19;131017;-40
2023/06/02 04:40:39;;;;;;;43.33;2.70;;;;;;;24.81;51.29;99567.19;7314009;19;129027;-39
2023/06/02 04:43:05;;;;;;;48.47;3.03;;;;;;;24.80;50.65;99565.53;7310445;19;129442;-40
2023/06/02 04:45:31;;;;;;;57.90;3.60;;;;;;;24.73;51.14;99565.34;7306785;19;129753;-38
2023/06/02 04:47:57;;;;;;;54.60;3.38;;;;;;;24.80;50.72;99578.69;7304473;19;129589;-39
2023/06/02 04:50:23;;;;;;;89.70;5.97;;;;;;;24.81;50.43;99582.97;7300658;19;132891;-38
2023/06/02 04:52:48;;;;;;;43.83;2.73;;;;;;;24.80;51.01;99583.94;7308269;19;130282;-39
2023/06/02 04:55:14;;;;;;;65.13;4.10;;;;;;;24.81;50.49;99575.09;7309746;19;129564;-39
2023/06/02 04:57:40;;;;;;;54.17;3.47;;;;;;;24.81;50.71;99575.09;7308888;19;129590;-41
2023/06/02 05:00:07;;;;;;;48.72;3.22;;;;;;;24.81;51.08;99580.34;7311800;19;128887;-38
2023/06/02 05:02:33;;;;;;;65.20;3.97;;;;;;;24.71;50.70;99561.25;7300370;19;130399;-38
2023/06/02 05:04:59;;;;;;;8.20;1.10;;;;;;;24.79;51.02;99577.06;7313729;19;130728;-38
2023/06/02 05:07:24;;;;;;;44.53;3.33;;;;;;;24.79;50.96;99579.69;7308044;19;130936;-40
2023/06/02 05:09:49;;;;;;;32.93;2.30;;;;;;;24.80;50.46;99576.06;7311621;19;130301;-41
2023/06/02 05:12:18;;;;;;;50.77;3.37;;;;;;;24.83;51.01;99570.47;7310405;19;129556;-40
2023/06/02 05:14:43;;;;;;;36.05;2.50;;;;;;;24.79;51.18;99580.47;7313225;19;130179;-40
2023/06/02 05:17:08;;;;;;;61.37;3.93;;;;;;;24.79;51.12;99580.47;7309977;19;131554;-38
2023/06/02 05:19:35;;;;;;;88.90;5.27;;;;;;;24.79;50.92;99590.19;7311248;19;129607;-40
2023/06/02 05:22:02;;;;;;;44.50;2.67;;;;;;;24.80;50.85;99591.84;7309688;19;130222;-41
2023/06/02 05:24:27;;;;;;;53.78;3.60;;;;;;;24.78;51.35;99588.53;7312505;19;129642;-41
2023/06/02 05:26:52;;;;;;;116.30;6.90;;;;;;;24.78;51.07;99583.28;7309836;19;129968;-41
2023/06/02 05:29:18;;;;;;;28.43;2.03;;;;;;;24.78;51.45;99589.38;7312852;19;130798;-42
2023/06/02 05:31:44;;;;;;;55.10;3.40;;;;;;;24.78;51.19;99585.91;7311700;19;129434;-39
2023/06/02 05:34:09;;;;;;;12.20;1.30;;;;;;;24.78;50.95;99588.53;7310447;19;129402;-42
2023/06/02 05:36:35;;;;;;;51.35;3.17;;;;;;;24.77;51.22;99587.72;7312541;19;129249;-42
2023/06/02 05:39:03;;;;;;;36.20;2.25;;;;;;;24.78;50.75;99593.78;7308597;19;129354;-40
2023/06/02 05:41:29;;;;;;;96.87;5.37;;;;;;;24.78;50.99;99594.63;7311304;19;129730;-40
2023/06/02 05:43:55;;;;;;;102.17;6.33;;;;;;;24.77;50.76;99598.25;7304889;19;129463;-39
2023/06/02 05:46:22;;;;;;;54.83;3.70;;;;;;;24.76;51.41;99601.03;7306525;19;129366;-41
2023/06/02 05:48:47;;;;;;;41.25;2.63;;;;;;;24.74;50.91;99589.84;7309687;19;129274;-41
2023/06/02 05:51:12;;;;;;;65.57;4.10;;;;;;;24.76;51.06;99595.78;7307856;19;129293;-39
2023/06/02 05:53:38;;;;;;;34.78;2.42;;;;;;;24.75;50.71;99596.75;7306105;19;129550;-39
2023/06/02 05:56:03;;;;;;;33.03;2.27;;;;;;;24.74;51.40;99603.84;7309497;19;129017;-41
2023/06/02 05:58:29;;;;;;;40.07;2.60;;;;;;;24.74;51.24;99609.09;7311442;19;128979;-41
2023/06/02 06:00:55;;;;;;;43.70;2.90;;;;;;;24.71;51.22;99612.03;7309023;19;129661;-41
2023/06/02 06:03:20;;;;;;;28.93;2.13;;;;;;;24.71;51.25;99608.59;7310334;19;129239;-41
2023/06/02 06:05:46;;;;;;;50.10;3.60;;;;;;;24.71;51.35;99613.84;7311095;19;129304;-40
2023/06/02 06:08:11;;;;;;;92.00;5.75;;;;;;;24.69;51.44;99603.50;7309493;19;129403;-40
2023/06/02 06:10:36;;;;;;;40.33;2.80;;;;;;;24.69;52.15;99610.53;7309550;19;128974;-39
2023/06/02 06:13:02;;;;;;;35.05;2.35;;;;;;;24.65;51.12;99603.91;7310015;19;129079;-41
2023/06/02 06:15:27;;;;;;;12.23;1.10;;;;;;;24.56;52.09;99599.63;7311100;19;128928;-37
2023/06/02 06:17:53;;;;;;;75.75;4.40;;;;;;;24.65;51.26;99614.44;7312512;19;129384;-40
2023/06/02 06:20:19;;;;;;;56.30;3.80;;;;;;;24.67;52.19;99623.00;7317259;19;129539;-40
2023/06/02 06:22:45;;;;;;;30.73;2.15;;;;;;;24.66;51.37;99621.34;7317251;19;129788;-39
2023/06/02 06:25:11;;;;;;;49.13;3.13;;;;;;;24.62;51.26;99618.22;7317761;19;129501;-39
2023/06/02 06:27:37;;;;;;;37.17;2.43;;;;;;;24.63;51.46;99622.47;7318877;19;129722;-40
2023/06/02 06:30:04;;;;;;;31.45;2.28;;;;;;;24.55;51.82;99606.69;7316847;19;128985;-40
2023/06/02 06:32:29;;;;;;;;;;;;;;;24.73;52.01;99619.75;7317786;19;129985;-41
2023/06/02 06:34:55;;;;;;;35.35;2.38;;;;;;;24.63;51.31;99627.72;7318473;19;130425;-42
2023/06/02 06:37:20;;;;;;;69.83;4.03;;;;;;;24.66;52.06;99621.34;7318316;19;129583;-42
2023/06/02 06:39:46;;;;;;;38.93;2.67;;;;;;;24.63;51.33;99622.47;7318091;19;129581;-39
2023/06/02 06:42:11;;;;;;;22.57;1.80;;;;;;;24.64;51.89;99628.56;7316491;19;129245;-40
2023/06/02 06:44:37;;;;;;;38.05;2.47;;;;;;;24.63;51.31;99621.63;7317916;19;128745;-40
2023/06/02 06:47:02;;;;;;;41.97;2.67;;;;;;;24.63;52.39;99622.47;7317936;19;128721;-40
2023/06/02 06:49:28;;;;;;;25.53;1.80;;;;;;;24.64;52.31;99628.56;7318694;19;129356;-42
2023/06/02 06:51:53;;;;;;;30.80;2.23;;;;;;;24.64;51.34;99632.03;7316479;19;129506;-41
2023/06/02 06:54:18;;;;;;;22.93;1.77;;;;;;;24.62;51.52;99626.09;7316345;19;128711;-39
2023/06/02 06:56:45;;;;;;;37.13;2.40;;;;;;;24.56;52.17;99623.28;7313971;19;129391;-41
2023/06/02 06:59:11;;;;;;;34.25;2.50;;;;;;;24.62;51.58;99635.78;7317170;19;129514;-39
2023/06/02 07:01:37;;;;;;;28.53;2.10;;;;;;;24.61;52.13;99636.78;7317383;19;129554;-42
2023/06/02 07:04:03;;;;;;;42.15;2.63;;;;;;;24.61;51.77;99639.41;7314871;19;128932;-39
2023/06/02 07:06:28;;;;;;;36.87;2.33;;;;;;;24.61;52.18;99645.47;7317411;19;128618;-42
2023/06/02 07:08:54;;;;;;;32.60;2.23;;;;;;;24.60;51.90;99649.09;7317873;19;130005;-40
2023/06/02 07:11:19;;;;;;;30.07;2.67;;;;;;;24.62;52.27;99651.56;7316405;19;129704;-39
2023/06/02 07:13:44;;;;;;;60.40;3.53;;;;;;;24.55;51.67;99637.38;7315240;19;128937;-40
2023/06/02 07:16:10;;;;;;;34.03;2.30;;;;;;;24.58;52.11;99645.78;7317788;19;129211;-40
2023/06/02 07:18:35;;;;;;;30.35;2.03;;;;;;;24.62;52.50;99651.56;7317508;19;129046;-39
2023/06/02 07:21:00;;;;;;;18.88;1.50;;;;;;;24.59;52.27;99652.72;7316380;19;129278;-41
2023/06/02 07:23:26;;;;;;;64.17;4.13;;;;;;;24.58;52.29;99658.13;7315097;19;129581;-40
2023/06/02 07:25:51;;;;;;;32.92;2.50;;;;;;;24.58;51.64;99650.25;7318128;19;129181;-40
2023/06/02 07:28:17;;;;;;;25.13;2.00;;;;;;;24.48;52.83;99623.25;7316636;19;129015;-40
2023/06/02 07:30:51;;;;;;;38.30;2.70;;;;;;;24.58;52.86;99648.41;7314167;19;129599;-41
2023/06/02 07:33:17;;;;;;;48.00;3.03;;;;;;;24.56;52.63;99647.75;7315046;19;128886;-40
2023/06/02 07:35:42;;;;;;;21.70;1.57;;;;;;;24.58;52.08;99650.25;7317427;19;128988;-39
2023/06/02 07:38:08;;;;;;;63.45;3.88;;;;;;;24.54;52.22;99647.09;7316130;19;129192;-39
2023/06/02 07:40:33;;;;;;;41.80;2.77;;;;;;;24.57;52.01;99648.56;7316457;19;129778;-42
2023/06/02 07:42:58;;;;;;;58.17;3.47;;;;;;;24.55;52.36;99646.09;7315064;19;129338;-40
2023/06/02 07:45:24;;;;;;;25.70;1.97;;;;;;;24.57;52.25;99644.16;7317678;19;129071;-40
2023/06/02 07:47:49;;;;;;;30.70;2.03;;;;;;;24.56;52.21;99644.31;7316386;19;129380;-41
2023/06/02 07:50:15;;;;;;;23.00;1.70;;;;;;;24.56;52.06;99657.44;7315863;19;129193;-39
2023/06/02 07:52:40;;;;;;;46.80;2.90;;;;;;;24.58;52.16;99660.75;7316042;19;129022;-41
2023/06/02 07:55:06;;;;;;;25.93;1.83;;;;;;;24.56;52.29;99649.56;7316479;19;131215;-41
2023/06/02 07:57:31;;;;;;;21.27;1.73;;;;;;;24.56;52.89;99647.75;7316146;19;130042;-41
2023/06/02 07:59:57;;;;;;;45.70;2.77;;;;;;;24.54;52.71;99633.13;7315919;19;129245;-40
2023/06/02 08:02:22;;;;;;;41.30;2.60;;;;;;;24.57;52.01;99643.31;7314265;19;128903;-40
2023/06/02 08:04:48;;;;;;;29.02;2.17;;;;;;;24.58;52.29;99645.78;7315892;19;129528;-41
2023/06/02 08:07:13;;;;;;;52.77;3.17;;;;;;;24.57;51.85;99644.16;7314157;19;129983;-41
2023/06/02 08:09:38;;;;;;;44.37;2.53;;;;;;;24.49;52.53;99631.78;7315390;19;129208;-42
2023/06/02 08:12:04;;;;;;;35.13;2.20;;;;;;;24.58;52.03;99645.78;7315223;19;129080;-40
2023/06/02 08:14:29;;;;;;;27.80;1.87;;;;;;;24.58;52.13;99647.63;7315637;19;128968;-40
2023/06/02 08:16:55;;;;;;;30.07;2.23;;;;;;;24.53;52.26;99642.81;7315151;19;129197;-41
2023/06/02 08:19:23;;;;;;;45.00;2.93;;;;;;;24.56;52.97;99646.94;7315065;19;129160;-41
2023/06/02 08:21:48;;;;;;;32.35;2.33;;;;;;;24.56;52.88;99639.06;7315008;19;128677;-40
2023/06/02 08:24:14;;;;;;;25.17;1.80;;;;;;;24.56;52.01;99637.22;7313018;19;128791;-41
2023/06/02 08:26:41;;;;;;;28.73;1.97;;;;;;;24.54;52.46;99643.63;7315590;19;130159;-42
2023/06/02 08:29:08;;;;;;;;;;;;;;;24.64;52.37;99644.34;7315991;19;130965;-40
2023/06/02 08:31:35;;;;;;;28.47;2.10;;;;;;;24.58;52.97;99644.97;7315685;19;129281;-42
2023/06/02 08:34:00;;;;;;;;;;;;;;;24.66;52.74;99631.88;7312716;19;128971;-41
2023/06/02 08:36:26;;;;;;;32.53;2.25;;;;;;;24.48;52.21;99618.78;7314420;19;129757;-42
2023/06/02 08:38:52;;;;;;;61.30;3.70;;;;;;;24.55;52.11;99630.34;7315146;19;130152;-41
2023/06/02 08:41:18;;;;;;;26.57;1.77;;;;;;;24.52;51.84;99630.66;7314758;19;128814;-42
2023/06/02 08:43:44;;;;;;;15.95;1.20;;;;;;;24.54;52.59;99633.94;7312925;19;129067;-40
2023/06/02 08:46:13;;;;;;;33.40;2.25;;;;;;;24.53;52.98;99626.22;7315003;19;129864;-41
2023/06/02 08:48:41;;;;;;;47.10;2.78;;;;;;;24.52;52.14;99625.41;7313920;19;129339;-38
2023/06/02 08:51:10;;;;;;;28.80;2.20;;;;;;;24.53;52.92;99627.03;7313655;19;129190;-40
2023/06/02 08:53:36;;;;;;;35.08;2.28;;;;;;;24.52;52.62;99632.44;7312827;19;129724;-42
2023/06/02 08:56:03;;;;;;;39.22;2.65;;;;;;;24.52;51.59;99627.19;7314052;19;129441;-42
2023/06/02 08:58:30;;;;;;;44.22;2.60;;;;;;;24.52;53.02;99630.66;7314279;19;129263;-40
2023/06/02 09:00:55;;;;;;;34.97;2.27;;;;;;;24.53;52.67;99624.41;7314638;19;129092;-41
2023/06/02 09:03:21;;;;;;;26.80;1.77;;;;;;;24.53;52.62;99628.84;7312436;19;129140;-42
2023/06/02 09:05:46;;;;;;;35.17;2.50;;;;;;;24.45;52.30;99606.81;7314404;19;130169;-40
2023/06/02 09:08:13;;;;;;;54.07;3.13;;;;;;;24.53;52.23;99623.59;7313850;19;129328;-40
2023/06/02 09:10:44;;;;;;;28.60;1.88;;;;;;;24.52;52.60;99619.31;7314463;19;128786;-41
2023/06/02 09:13:27;;;;;;;28.08;1.98;;;;;;;24.48;52.36;99618.78;7313371;19;129790;-40
2023/06/02 09:16:00;;;;;;;14.38;1.25;;;;;;;24.51;52.94;99630.81;7314797;19;129195;-39
2023/06/02 09:18:26;;;;;;;27.45;1.90;;;;;;;24.53;52.55;99626.22;7313787;19;130035;-40
2023/06/02 09:20:52;;;;;;;49.57;2.80;;;;;;;24.52;52.11;99619.31;7313755;19;129342;-38
2023/06/02 09:23:18;;;;;;;22.23;1.60;;;;;;;24.52;52.35;99619.31;7312800;19;129209;-40
2023/06/02 09:25:45;;;;;;;3.40;0.70;;;;;;;24.52;53.11;99627.19;7313343;19;129458;-41
2023/06/02 09:28:11;;;;;;;18.38;1.95;;;;;;;24.51;52.05;99626.34;7312650;19;130810;-41
2023/06/02 09:30:36;;;;;;;72.47;4.43;;;;;;;24.51;52.86;99636.06;7312621;19;128786;-39
2023/06/02 09:33:08;;;;;;;38.10;2.40;;;;;;;24.53;52.93;99631.50;7312518;19;129103;-42
2023/06/02 09:35:41;;;;;;;34.85;2.17;;;;;;;24.53;53.18;99639.38;7312708;19;129360;-40
2023/06/02 09:38:12;;;;;;;21.48;1.77;;;;;;;24.48;52.62;99638.03;7312616;19;129603;-41
2023/06/02 09:40:40;;;;;;;58.55;3.58;;;;;;;24.49;53.02;99638.84;7312578;19;130189;-41
2023/06/02 09:43:10;;;;;;;29.98;2.20;;;;;;;24.48;52.48;99651.16;7311069;19;128772;-39
2023/06/02 09:45:47;;;;;;;43.83;2.50;;;;;;;24.50;53.43;99640.50;7313296;19;129152;-41
2023/06/02 09:48:27;;;;;;;;;;;;;;;24.60;52.83;99640.38;7313694;19;129654;-41
2023/06/02 09:50:52;;;;;;;31.85;2.10;;;;;;;24.51;52.77;99638.69;7312037;19;129613;-39
2023/06/02 09:53:18;;;;;;;28.03;1.97;;;;;;;24.51;52.05;99638.69;7309808;19;129025;-41
2023/06/02 09:55:45;;;;;;;45.37;2.90;;;;;;;24.51;52.98;99639.50;7312482;19;130459;-40
2023/06/02 09:58:11;;;;;;;34.30;2.17;;;;;;;24.48;52.40;99638.03;7313054;19;131006;-41
2023/06/02 10:00:37;;;;;;;34.33;2.30;;;;;;;24.49;52.61;99637.03;7312564;19;129234;-40
2023/06/02 10:03:06;;;;;;;32.77;2.13;;;;;;;24.47;52.65;99643.44;7310804;19;129400;-40
2023/06/02 10:05:33;;;;;;;37.80;2.53;;;;;;;24.47;52.51;99635.56;7311211;19;129411;-41
2023/06/02 10:08:19;;;;;;;39.67;2.33;;;;;;;24.49;53.52;99634.41;7311383;19;131147;-40
2023/06/02 10:11:09;;;;;;;31.65;2.20;;;;;;;24.48;53.19;99645.06;7312927;19;129033;-40
2023/06/02 10:14:28;;;;;;;34.45;2.17;;;;;;;24.50;52.86;99648.38;7310550;19;129822;-39
2023/06/02 10:17:14;;;;;;;23.13;1.60;;;;;;;24.51;53.44;99647.38;7308655;19;129779;-39
2023/06/02 10:19:57;;;;;;;30.88;1.90;;;;;;;24.47;52.73;99648.69;7311868;19;129340;-41
2023/06/02 10:22:38;;;;;;;39.53;2.35;;;;;;;24.48;52.11;99644.28;7309668;19;129506;-40
2023/06/02 10:25:17;;;;;;;57.80;3.22;;;;;;;24.37;53.21;99627.78;7311854;19;129134;-41
2023/06/02 10:27:47;;;;;;;43.72;2.67;;;;;;;24.44;52.61;99641.94;7311139;19;129543;-41
2023/06/02 10:30:19;;;;;;;60.85;3.47;;;;;;;24.48;53.04;99652.16;7311258;19;129603;-39
2023/06/02 10:32:47;;;;;;;26.92;1.73;;;;;;;24.46;53.39;99647.06;7311373;19;129276;-40
2023/06/02 10:35:16;;;;;;;50.60;3.17;;;;;;;24.43;52.79;99648.19;7310772;19;128859;-40
2023/06/02 10:37:41;;;;;;;47.55;2.72;;;;;;;24.46;52.37;99647.06;7310789;19;129889;-40
2023/06/02 10:40:10;;;;;;;39.87;2.47;;;;;;;24.45;52.61;99646.22;7311074;19;130101;-39
2023/06/02 10:42:36;;;;;;;19.38;1.42;;;;;;;24.45;52.77;99642.75;7310758;19;129003;-42
2023/06/02 10:45:27;;;;;;;34.57;2.20;;;;;;;24.48;52.97;99644.28;7308874;19;129160;-39
2023/06/02 10:47:52;;;;;;;32.25;2.28;;;;;;;24.44;52.95;99639.31;7310503;19;130361;-41
2023/06/02 10:50:24;;;;;;;44.77;2.77;;;;;;;24.46;53.27;99647.06;7311007;19;130374;-39
2023/06/02 10:53:10;;;;;;;51.05;3.05;;;;;;;24.44;52.90;99639.31;7309437;19;129100;-40
2023/06/02 10:55:35;;;;;;;59.88;3.25;;;;;;;24.43;52.76;99648.19;7311574;19;129149;-41
2023/06/02 10:58:05;;;;;;;15.07;1.17;;;;;;;24.45;53.01;99629.63;7310967;19;129440;-39
2023/06/02 11:00:39;;;;;;;57.13;3.60;;;;;;;24.42;53.15;99622.91;7310494;19;129205;-42
2023/06/02 11:03:22;;;;;;;32.20;2.00;;;;;;;24.44;53.74;99639.31;7309700;19;129299;-42
2023/06/02 11:05:54;;;;;;;34.08;2.13;;;;;;;24.44;53.22;99638.50;7317426;19;128910;-40
2023/06/02 11:08:21;;;;;;;38.88;2.25;;;;;;;24.42;52.99;99645.72;7316857;19;131050;-41
2023/06/02 11:10:51;;;;;;;53.22;3.10;;;;;;;24.42;53.43;99643.91;7316706;19;129394;-40
2023/06/02 11:13:18;;;;;;;31.17;1.95;;;;;;;24.33;52.86;99625.63;7316766;19;130404;-40
2023/06/02 11:15:58;;;;;;;;;;;;;;;24.52;53.17;99640.34;7317610;19;129050;-41
2023/06/02 11:18:28;;;;;;;30.80;1.92;;;;;;;24.42;52.41;99653.59;7317036;19;130033;-42